createdAt,value
2023-05-17T00:00:39.854Z,10.25
2023-05-17T00:03:06.368Z,12.45
2023-05-17T00:05:35.419Z,10.55
2023-05-17T00:08:01.951Z,10.30
2023-05-17T00:10:28.410Z,12.18
2023-05-17T00:12:57.347Z,9.73
2023-05-17T00:15:23.765Z,10.60
2023-05-17T00:17:50.356Z,10.45
2023-05-17T00:20:16.912Z,10.95
2023-05-17T00:22:45.671Z,11.30
2023-05-17T00:25:14.513Z,10.88
2023-05-17T00:27:40.950Z,12.73
2023-05-17T00:30:09.820Z,12.52
2023-05-17T00:32:36.390Z,12.60
2023-05-17T00:35:03.078Z,11.43
2023-05-17T00:37:30.040Z,11.05
2023-05-17T00:39:56.470Z,11.68
2023-05-17T00:42:23.033Z,10.93
2023-05-17T00:44:49.511Z,11.50
2023-05-17T00:47:16.043Z,11.88
2023-05-17T00:49:45.677Z,9.80
2023-05-17T00:52:12.208Z,10.35
2023-05-17T00:54:39.470Z,13.30
2023-05-17T00:57:06.071Z,10.80
2023-05-17T00:59:32.672Z,12.10
2023-05-17T01:01:59.277Z,9.50
2023-05-17T01:04:25.830Z,11.20
2023-05-17T01:06:52.280Z,10.68
2023-05-17T01:09:18.872Z,9.40
2023-05-17T01:11:56.363Z,10.30
2023-05-17T01:14:38.304Z,9.38
2023-05-17T01:17:06.652Z,10.25
2023-05-17T01:19:50.531Z,11.20
2023-05-17T01:22:35.972Z,9.75
2023-05-17T01:25:23.395Z,13.10
2023-05-17T01:27:49.921Z,10.18
2023-05-17T01:30:18.168Z,10.75
2023-05-17T01:32:44.683Z,9.50
2023-05-17T01:35:11.898Z,10.50
2023-05-17T01:37:40.552Z,10.95
2023-05-17T01:40:09.007Z,9.95
2023-05-17T01:42:38.945Z,9.90
2023-05-17T01:45:08.465Z,9.63
2023-05-17T01:48:10.713Z,11.18
2023-05-17T01:50:37.400Z,10.90
2023-05-17T01:53:21.423Z,10.57
2023-05-17T01:55:49.960Z,9.23
2023-05-17T01:58:16.616Z,10.75
2023-05-17T02:00:43.932Z,10.50
2023-05-17T02:03:16.927Z,9.48
2023-05-17T02:05:43.411Z,11.13
2023-05-17T02:08:09.952Z,9.60
2023-05-17T02:10:36.472Z,9.40
2023-05-17T02:13:02.963Z,11.57
2023-05-17T02:15:32.541Z,9.68
2023-05-17T02:17:59.143Z,9.77
2023-05-17T02:20:25.663Z,9.40
2023-05-17T02:22:52.173Z,10.40
2023-05-17T02:25:18.799Z,8.45
2023-05-17T02:27:45.378Z,10.05
2023-05-17T02:30:14.526Z,11.10
2023-05-17T02:32:42.270Z,9.57
2023-05-17T02:35:09.500Z,9.73
2023-05-17T02:37:36.640Z,8.32
2023-05-17T02:40:04.271Z,8.77
2023-05-17T02:42:30.778Z,9.02
2023-05-17T02:44:58.105Z,11.27
2023-05-17T02:47:24.690Z,8.15
2023-05-17T02:49:51.158Z,11.43
2023-05-17T02:52:19.724Z,9.18
2023-05-17T02:54:46.260Z,12.27
2023-05-17T02:57:12.742Z,10.77
2023-05-17T02:59:39.237Z,10.80
2023-05-17T03:02:06.080Z,9.52
2023-05-17T03:04:32.939Z,9.57
2023-05-17T03:06:59.549Z,10.27
2023-05-17T03:09:26.102Z,10.57
2023-05-17T03:11:54.883Z,9.55
2023-05-17T03:14:21.437Z,8.75
2023-05-17T03:16:50.271Z,8.63
2023-05-17T03:19:16.832Z,8.13
2023-05-17T03:21:43.428Z,9.60
2023-05-17T03:24:09.880Z,8.38
2023-05-17T03:26:36.381Z,8.55
2023-05-17T03:29:05.272Z,9.35
2023-05-17T03:31:34.203Z,7.78
2023-05-17T03:34:03.141Z,11.00
2023-05-17T03:36:30.140Z,11.00
2023-05-17T03:38:59.139Z,11.68
2023-05-17T03:41:25.579Z,8.88
2023-05-17T03:43:52.080Z,9.13
2023-05-17T03:46:18.639Z,11.77
2023-05-17T03:48:45.204Z,10.25
2023-05-17T03:51:11.829Z,9.00
2023-05-17T03:53:43.496Z,9.25
2023-05-17T03:56:10.559Z,9.50
2023-05-17T03:58:37.069Z,9.88
2023-05-17T04:01:04.029Z,9.30
2023-05-17T04:03:30.898Z,9.55
2023-05-17T04:06:06.962Z,9.50
2023-05-17T04:08:33.924Z,9.38
2023-05-17T04:11:01.458Z,10.73
2023-05-17T04:13:28.003Z,9.32
2023-05-17T04:15:54.556Z,10.50
2023-05-17T04:18:21.186Z,10.68
2023-05-17T04:20:47.833Z,9.00
2023-05-17T04:23:14.389Z,9.70
2023-05-17T04:25:41.038Z,11.45
2023-05-17T04:28:09.862Z,9.68
2023-05-17T04:30:38.664Z,9.88
2023-05-17T04:33:05.250Z,9.68
2023-05-17T04:35:31.955Z,12.40
2023-05-17T04:37:58.520Z,12.15
2023-05-17T04:40:25.189Z,10.27
2023-05-17T04:42:52.292Z,10.02
2023-05-17T04:45:18.764Z,10.68
2023-05-17T04:47:45.924Z,9.85
2023-05-17T04:50:12.761Z,10.32
2023-05-17T04:52:44.767Z,10.88
2023-05-17T04:55:11.348Z,9.90
2023-05-17T04:57:37.845Z,11.30
2023-05-17T05:00:10.372Z,12.15
2023-05-17T05:02:36.966Z,10.60
2023-05-17T05:05:05.122Z,12.70
2023-05-17T05:07:31.701Z,10.93
2023-05-17T05:09:58.150Z,11.88
2023-05-17T05:12:24.734Z,14.98
2023-05-17T05:14:51.247Z,10.93
2023-05-17T05:17:20.137Z,11.70
2023-05-17T05:19:46.795Z,12.88
2023-05-17T05:22:15.653Z,11.75
2023-05-17T05:24:42.136Z,12.05
2023-05-17T05:27:08.674Z,11.73
2023-05-17T05:29:35.231Z,13.90
2023-05-17T05:32:02.379Z,10.88
2023-05-17T05:34:29.563Z,11.90
2023-05-17T05:36:56.512Z,11.05
2023-05-17T05:39:23.031Z,12.20
2023-05-17T05:41:51.920Z,12.02
2023-05-17T05:44:18.402Z,11.85
2023-05-17T05:46:44.889Z,13.45
2023-05-17T05:49:14.033Z,11.23
2023-05-17T05:51:40.499Z,14.55
2023-05-17T05:54:06.958Z,12.73
2023-05-17T05:56:33.482Z,11.50
2023-05-17T05:58:59.957Z,12.80
2023-05-17T06:01:28.879Z,12.77
2023-05-17T06:03:55.944Z,13.88
2023-05-17T06:06:22.610Z,12.45
2023-05-17T06:08:49.273Z,11.80
2023-05-17T06:11:15.746Z,11.90
2023-05-17T06:13:42.283Z,12.25
2023-05-17T06:16:08.803Z,13.10
2023-05-17T06:18:37.746Z,15.95
2023-05-17T06:21:04.480Z,19.17
2023-05-17T06:23:31.145Z,19.75
2023-05-17T06:25:57.797Z,20.48
2023-05-17T06:28:24.466Z,19.52
2023-05-17T06:30:50.970Z,17.77
2023-05-17T06:33:19.868Z,18.42
2023-05-17T06:35:56.281Z,18.23
2023-05-17T06:38:24.410Z,18.25
2023-05-17T06:40:54.716Z,18.05
2023-05-17T06:43:21.345Z,17.27
2023-05-17T06:45:50.176Z,16.50
2023-05-17T06:48:16.894Z,19.92
2023-05-17T06:50:43.516Z,19.70
2023-05-17T06:53:10.155Z,17.67
2023-05-17T06:55:36.759Z,16.75
2023-05-17T06:58:05.565Z,21.48
2023-05-17T07:00:32.594Z,20.15
2023-05-17T07:03:00.059Z,19.10
2023-05-17T07:05:29.507Z,20.42
2023-05-17T07:07:56.697Z,18.35
2023-05-17T07:10:23.190Z,18.85
2023-05-17T07:12:49.803Z,20.08
2023-05-17T07:15:16.417Z,17.98
2023-05-17T07:17:42.939Z,17.40
2023-05-17T07:20:09.828Z,22.33
2023-05-17T07:22:36.881Z,19.00
2023-05-17T07:25:03.579Z,21.95
2023-05-17T07:27:30.064Z,20.20
2023-05-17T07:29:56.588Z,21.73
2023-05-17T07:32:23.088Z,20.83
2023-05-17T07:34:54.615Z,20.02
2023-05-17T07:37:21.608Z,17.73
2023-05-17T07:39:48.111Z,21.08
2023-05-17T07:42:14.695Z,16.63
2023-05-17T07:44:41.389Z,17.70
2023-05-17T07:47:08.029Z,19.88
2023-05-17T07:49:34.599Z,22.27
2023-05-17T07:52:02.865Z,18.27
2023-05-17T07:54:29.692Z,20.25
2023-05-17T07:56:56.303Z,18.88
2023-05-17T07:59:25.104Z,20.15
2023-05-17T08:01:54.965Z,22.35
2023-05-17T08:04:21.504Z,19.23
2023-05-17T08:06:48.808Z,18.83
2023-05-17T08:09:18.597Z,17.73
2023-05-17T08:11:47.939Z,21.33
2023-05-17T08:14:14.826Z,17.50
2023-05-17T08:16:45.487Z,17.92
2023-05-17T08:19:15.975Z,21.77
2023-05-17T08:21:42.906Z,22.92
2023-05-17T08:24:11.943Z,19.90
2023-05-17T08:26:38.578Z,16.63
2023-05-17T08:29:05.305Z,18.90
2023-05-17T08:31:32.466Z,18.38
2023-05-17T08:33:59.070Z,17.80
2023-05-17T08:36:26.967Z,18.00
2023-05-17T08:38:53.617Z,18.42
2023-05-17T08:41:20.823Z,23.45
2023-05-17T08:43:51.109Z,20.13
2023-05-17T08:46:21.328Z,19.13
2023-05-17T08:48:50.631Z,21.75
2023-05-17T08:51:17.704Z,20.95
2023-05-17T08:53:47.100Z,19.52
2023-05-17T08:56:16.640Z,19.90
2023-05-17T08:58:56.407Z,18.13
2023-05-17T09:01:25.886Z,19.55
2023-05-17T09:03:53.903Z,20.25
2023-05-17T09:06:20.767Z,22.23
2023-05-17T09:08:47.342Z,23.67
2023-05-17T09:11:13.930Z,21.00
2023-05-17T09:13:40.468Z,22.45
2023-05-17T09:16:15.063Z,20.77
2023-05-17T09:18:41.733Z,19.35
2023-05-17T09:21:09.799Z,25.77
2023-05-17T09:23:37.941Z,23.63
2023-05-17T09:26:10.438Z,28.88
2023-05-17T09:28:38.370Z,44.78
2023-05-17T09:31:08.835Z,39.53
2023-05-17T09:33:35.718Z,41.77
2023-05-17T09:36:07.483Z,57.00
2023-05-17T09:38:33.989Z,65.50
2023-05-17T09:41:00.910Z,23.52
2023-05-17T09:43:27.567Z,50.67
2023-05-17T09:45:57.939Z,50.45
2023-05-17T09:48:25.842Z,27.60
2023-05-17T09:50:52.451Z,34.90
2023-05-17T09:53:22.702Z,43.45
2023-05-17T09:55:49.222Z,56.20
2023-05-17T09:58:15.795Z,37.95
2023-05-17T10:00:42.314Z,48.47
2023-05-17T10:03:10.560Z,52.63
2023-05-17T10:05:37.279Z,51.63
2023-05-17T10:08:04.696Z,28.50
2023-05-17T10:10:31.205Z,27.70
2023-05-17T10:13:00.166Z,33.50
2023-05-17T10:15:26.865Z,30.13
2023-05-17T10:17:53.945Z,21.98
2023-05-17T10:20:22.868Z,23.08
2023-05-17T10:22:49.890Z,22.67
2023-05-17T10:25:16.378Z,22.83
2023-05-17T10:27:42.963Z,23.75
2023-05-17T10:30:10.014Z,25.92
2023-05-17T10:32:36.694Z,29.67
2023-05-17T10:35:11.439Z,35.40
2023-05-17T10:37:40.394Z,29.48
2023-05-17T10:40:07.315Z,24.08
2023-05-17T10:42:33.910Z,23.27
2023-05-17T10:45:01.702Z,27.77
2023-05-17T10:47:34.621Z,20.42
2023-05-17T10:50:01.750Z,19.90
2023-05-17T10:52:28.222Z,18.67
2023-05-17T10:54:55.923Z,24.42
2023-05-17T10:57:49.665Z,23.45
2023-05-17T11:00:20.346Z,23.90
2023-05-17T11:02:49.030Z,20.58
2023-05-17T11:05:25.373Z,23.38
2023-05-17T11:07:51.911Z,24.50
2023-05-17T11:10:18.606Z,31.67
2023-05-17T11:12:46.974Z,27.63
2023-05-17T11:15:14.296Z,29.33
2023-05-17T11:17:44.235Z,32.50
2023-05-17T11:20:29.835Z,25.95
2023-05-17T11:22:59.010Z,23.00
2023-05-17T11:25:32.516Z,24.65
2023-05-17T11:27:59.132Z,27.65
2023-05-17T11:30:29.415Z,26.23
2023-05-17T11:33:03.245Z,33.83
2023-05-17T11:35:36.568Z,29.27
2023-05-17T11:38:15.441Z,27.60
2023-05-17T11:40:42.234Z,25.88
2023-05-17T11:43:19.164Z,25.30
2023-05-17T11:45:54.982Z,28.35
2023-05-17T11:48:24.451Z,26.67
2023-05-17T11:50:51.670Z,23.20
2023-05-17T11:53:19.018Z,23.10
2023-05-17T11:55:47.470Z,29.00
2023-05-17T11:58:14.654Z,28.83
2023-05-17T12:00:42.134Z,27.00
2023-05-17T12:03:21.855Z,24.95
2023-05-17T12:05:49.047Z,28.13
2023-05-17T12:08:16.316Z,27.42
2023-05-17T12:10:46.760Z,27.88
2023-05-17T12:13:13.345Z,26.87
2023-05-17T12:15:39.837Z,26.52
2023-05-17T12:18:06.412Z,24.58
2023-05-17T12:20:35.324Z,25.40
2023-05-17T12:23:02.056Z,24.27
2023-05-17T12:25:29.727Z,22.88
2023-05-17T12:28:15.281Z,23.25
2023-05-17T12:30:41.831Z,26.27
2023-05-17T12:33:08.534Z,25.75
2023-05-17T12:35:35.052Z,24.83
2023-05-17T12:38:02.010Z,20.27
2023-05-17T12:40:28.618Z,23.27
2023-05-17T12:43:02.006Z,24.63
2023-05-17T12:45:28.467Z,21.50
2023-05-17T12:47:55.034Z,22.05
2023-05-17T12:50:31.216Z,20.63
2023-05-17T12:52:57.868Z,22.77
2023-05-17T12:55:24.809Z,23.30
2023-05-17T12:57:51.771Z,21.88
2023-05-17T13:00:18.725Z,20.75
2023-05-17T13:02:45.297Z,23.98
2023-05-17T13:05:23.984Z,21.05
2023-05-17T13:07:50.510Z,20.00
2023-05-17T13:10:25.911Z,21.63
2023-05-17T13:12:58.794Z,22.58
2023-05-17T13:15:31.773Z,20.23
2023-05-17T13:18:00.082Z,18.23
2023-05-17T13:20:27.053Z,19.83
2023-05-17T13:22:53.653Z,20.05
2023-05-17T13:25:20.483Z,20.98
2023-05-17T13:27:49.341Z,19.42
2023-05-17T13:30:16.331Z,21.13
2023-05-17T13:32:43.189Z,16.50
2023-05-17T13:35:10.489Z,17.13
2023-05-17T13:37:37.568Z,17.63
2023-05-17T13:40:04.324Z,15.77
2023-05-17T13:42:33.164Z,16.65
2023-05-17T13:45:01.932Z,13.68
2023-05-17T13:47:31.689Z,18.38
2023-05-17T13:50:01.397Z,14.00
2023-05-17T13:52:28.040Z,14.52
2023-05-17T13:54:54.807Z,12.50
2023-05-17T13:57:21.837Z,14.15
2023-05-17T13:59:48.296Z,12.02
2023-05-17T14:02:15.227Z,13.55
2023-05-17T14:04:41.692Z,13.85
2023-05-17T14:07:08.244Z,12.52
2023-05-17T14:09:35.512Z,13.13
2023-05-17T14:12:02.050Z,12.85
2023-05-17T14:14:30.940Z,15.93
2023-05-17T14:16:57.826Z,13.07
2023-05-17T14:19:24.482Z,12.48
2023-05-17T14:21:53.889Z,14.77
2023-05-17T14:24:20.454Z,11.95
2023-05-17T14:26:46.994Z,12.32
2023-05-17T14:29:13.605Z,13.35
2023-05-17T14:31:40.116Z,12.77
2023-05-17T14:34:06.608Z,14.20
2023-05-17T14:36:36.281Z,12.10
2023-05-17T14:39:03.907Z,12.88
2023-05-17T14:41:30.552Z,10.60
2023-05-17T14:43:57.133Z,15.38
2023-05-17T14:46:26.103Z,10.55
2023-05-17T14:48:52.716Z,11.75
2023-05-17T14:51:19.474Z,12.75
2023-05-17T14:53:46.639Z,9.18
2023-05-17T14:56:15.386Z,9.20
2023-05-17T14:58:44.528Z,11.25
2023-05-17T15:01:11.106Z,9.13
2023-05-17T15:03:39.956Z,12.75
2023-05-17T15:06:09.409Z,9.13
2023-05-17T15:08:39.355Z,12.05
2023-05-17T15:11:08.390Z,9.35
2023-05-17T15:13:34.935Z,9.23
2023-05-17T15:16:04.861Z,12.02
2023-05-17T15:18:31.518Z,9.07
2023-05-17T15:20:58.060Z,10.48
2023-05-17T15:23:24.532Z,11.63
2023-05-17T15:25:51.158Z,11.82
2023-05-17T15:28:20.063Z,13.60
2023-05-17T15:30:47.110Z,9.90
2023-05-17T15:33:13.763Z,10.63
2023-05-17T15:35:41.760Z,9.65
2023-05-17T15:38:08.763Z,7.97
2023-05-17T15:40:35.326Z,10.73
2023-05-17T15:43:01.942Z,15.07
2023-05-17T15:45:29.045Z,18.30
2023-05-17T15:47:57.266Z,15.65
2023-05-17T15:50:23.888Z,14.38
2023-05-17T15:52:50.570Z,12.05
2023-05-17T15:55:17.906Z,15.35
2023-05-17T15:57:44.523Z,13.27
2023-05-17T16:00:11.159Z,13.20
2023-05-17T16:02:37.836Z,13.73
2023-05-17T16:05:04.585Z,13.80
2023-05-17T16:07:31.358Z,13.57
2023-05-17T16:10:00.454Z,10.55
2023-05-17T16:12:27.094Z,12.00
2023-05-17T16:14:53.665Z,10.63
2023-05-17T16:17:20.307Z,10.20
2023-05-17T16:19:46.894Z,11.95
2023-05-17T16:22:14.086Z,12.05
2023-05-17T16:24:40.728Z,11.02
2023-05-17T16:27:08.160Z,10.60
2023-05-17T16:29:39.811Z,13.98
2023-05-17T16:32:07.378Z,15.43
2023-05-17T16:34:33.884Z,13.13
2023-05-17T16:37:00.808Z,11.40
2023-05-17T16:39:28.773Z,10.80
2023-05-17T16:41:55.618Z,11.63
2023-05-17T16:44:24.491Z,10.93
2023-05-17T16:46:51.663Z,11.93
2023-05-17T16:49:20.266Z,11.38
2023-05-17T16:51:46.833Z,11.48
2023-05-17T16:54:13.491Z,10.18
2023-05-17T16:56:40.019Z,12.88
2023-05-17T16:59:06.505Z,9.98
2023-05-17T17:01:33.165Z,12.48
2023-05-17T17:03:59.789Z,16.77
2023-05-17T17:06:26.366Z,10.10
2023-05-17T17:08:53.122Z,10.85
2023-05-17T17:11:22.574Z,10.35
2023-05-17T17:13:49.465Z,12.27
2023-05-17T17:16:16.038Z,11.13
2023-05-17T17:18:42.658Z,9.95
2023-05-17T17:21:09.219Z,12.32
2023-05-17T17:23:35.799Z,9.80
2023-05-17T17:26:02.232Z,14.50
2023-05-17T17:28:28.836Z,13.57
2023-05-17T17:30:55.242Z,11.15
2023-05-17T17:33:22.018Z,12.20
2023-05-17T17:35:49.072Z,11.43
2023-05-17T17:38:16.191Z,10.85
2023-05-17T17:40:42.842Z,9.93
2023-05-17T17:43:11.717Z,9.82
2023-05-17T17:45:38.473Z,10.98
2023-05-17T17:48:05.174Z,9.07
2023-05-17T17:50:33.737Z,9.93
2023-05-17T17:53:00.954Z,9.38
2023-05-17T17:55:29.753Z,10.70
2023-05-17T17:57:58.253Z,9.48
2023-05-17T18:00:24.808Z,10.32
2023-05-17T18:02:53.458Z,8.18
2023-05-17T18:05:20.116Z,10.55
2023-05-17T18:07:46.611Z,8.85
2023-05-17T18:10:15.481Z,9.27
2023-05-17T18:12:41.992Z,10.00
2023-05-17T18:15:10.829Z,10.40
2023-05-17T18:17:37.888Z,9.27
2023-05-17T18:20:06.827Z,9.00
2023-05-17T18:22:33.365Z,7.15
2023-05-17T18:25:02.022Z,10.25
2023-05-17T18:27:28.556Z,9.60
2023-05-17T18:29:55.090Z,9.32
2023-05-17T18:32:21.616Z,7.72
2023-05-17T18:34:48.179Z,8.13
2023-05-17T18:37:15.234Z,7.18
2023-05-17T18:39:44.881Z,10.80
2023-05-17T18:42:11.345Z,7.80
2023-05-17T18:44:37.907Z,8.13
2023-05-17T18:47:04.631Z,6.35
2023-05-17T18:49:31.414Z,7.93
2023-05-17T18:51:59.551Z,7.07
2023-05-17T18:54:26.572Z,5.78
2023-05-17T18:56:53.168Z,8.95
2023-05-17T18:59:19.721Z,10.02
2023-05-17T19:01:46.370Z,9.90
2023-05-17T19:04:13.895Z,7.53
2023-05-17T19:06:43.494Z,9.38
2023-05-17T19:09:10.092Z,7.30
2023-05-17T19:11:36.928Z,8.63
2023-05-17T19:14:05.884Z,7.10
2023-05-17T19:16:32.465Z,9.50
2023-05-17T19:18:59.024Z,9.45
2023-05-17T19:21:27.903Z,9.30
2023-05-17T19:23:54.485Z,7.75
2023-05-17T19:26:23.293Z,7.80
2023-05-17T19:28:52.265Z,8.18
2023-05-17T19:31:18.903Z,8.57
2023-05-17T19:33:45.541Z,7.88
2023-05-17T19:36:12.464Z,6.22
2023-05-17T19:38:39.084Z,7.30
2023-05-17T19:41:05.620Z,8.15
2023-05-17T19:43:35.732Z,9.30
2023-05-17T19:46:03.367Z,7.07
2023-05-17T19:48:32.285Z,7.95
2023-05-17T19:51:01.170Z,10.35
2023-05-17T19:53:31.890Z,8.55
2023-05-17T19:56:08.301Z,8.65
2023-05-17T19:58:35.326Z,8.40
2023-05-17T20:01:02.092Z,9.30
2023-05-17T20:03:28.925Z,10.57
2023-05-17T20:05:55.621Z,8.68
2023-05-17T20:08:22.207Z,9.57
2023-05-17T20:10:51.197Z,9.98
2023-05-17T20:13:19.709Z,9.50
2023-05-17T20:15:46.232Z,10.60
2023-05-17T20:18:12.923Z,9.57
2023-05-17T20:20:39.522Z,8.57
2023-05-17T20:23:08.340Z,7.97
2023-05-17T20:25:37.619Z,8.00
2023-05-17T20:28:04.179Z,8.07
2023-05-17T20:30:31.037Z,9.18
2023-05-17T20:32:57.802Z,8.93
2023-05-17T20:35:24.718Z,8.82
2023-05-17T20:37:53.502Z,7.88
2023-05-17T20:40:20.103Z,6.95
2023-05-17T20:42:48.129Z,8.85
2023-05-17T20:45:17.877Z,8.80
2023-05-17T20:47:44.534Z,7.28
2023-05-17T20:50:14.143Z,9.05
2023-05-17T20:52:40.866Z,8.00
2023-05-17T20:55:10.439Z,9.40
2023-05-17T20:57:37.023Z,6.80
2023-05-17T21:00:06.078Z,7.53
2023-05-17T21:02:35.005Z,7.20
2023-05-17T21:05:03.347Z,7.35
2023-05-17T21:07:31.969Z,8.20
2023-05-17T21:09:58.422Z,8.65
2023-05-17T21:12:27.260Z,5.78
2023-05-17T21:15:07.947Z,7.32
2023-05-17T21:17:40.498Z,7.85
2023-05-17T21:20:07.318Z,5.25
2023-05-17T21:22:33.814Z,6.10
2023-05-17T21:25:00.469Z,6.50
2023-05-17T21:27:27.548Z,5.45
2023-05-17T21:29:54.087Z,8.80
2023-05-17T21:32:20.728Z,6.32
2023-05-17T21:34:50.996Z,5.63
2023-05-17T21:37:19.148Z,6.88
2023-05-17T21:39:45.734Z,6.30
2023-05-17T21:42:14.700Z,6.70
2023-05-17T21:44:43.567Z,5.68
2023-05-17T21:47:10.440Z,5.15
2023-05-17T21:49:37.017Z,6.60
2023-05-17T21:52:03.718Z,5.63
2023-05-17T21:54:30.200Z,6.05
2023-05-17T21:56:56.667Z,7.20
2023-05-17T21:59:24.955Z,6.85
2023-05-17T22:01:54.004Z,7.45
2023-05-17T22:04:20.666Z,5.72
2023-05-17T22:06:47.106Z,5.63
2023-05-17T22:09:14.684Z,5.75
2023-05-17T22:11:41.256Z,6.55
2023-05-17T22:14:07.896Z,7.13
2023-05-17T22:16:35.109Z,4.70
2023-05-17T22:19:01.800Z,5.20
2023-05-17T22:21:28.689Z,6.15
2023-05-17T22:23:55.651Z,6.75
2023-05-17T22:26:24.676Z,9.63
2023-05-17T22:28:51.807Z,5.68
2023-05-17T22:32:54.625Z,7.63
2023-05-17T22:35:24.331Z,8.55
2023-05-17T22:37:53.336Z,6.47
2023-05-17T22:40:22.466Z,6.15
2023-05-17T22:42:52.072Z,7.10
2023-05-17T22:45:18.848Z,4.75
2023-05-17T22:47:47.786Z,7.50
2023-05-17T22:50:15.687Z,4.88
2023-05-17T22:52:46.425Z,6.47
2023-05-17T22:55:13.187Z,6.83
2023-05-17T22:57:42.045Z,5.35
2023-05-17T23:00:11.381Z,7.93
2023-05-17T23:02:38.288Z,6.40
2023-05-17T23:05:05.993Z,5.40
2023-05-17T23:07:38.097Z,9.23
2023-05-17T23:10:05.642Z,7.57
2023-05-17T23:12:37.137Z,6.22
2023-05-17T23:15:05.103Z,6.28
2023-05-17T23:17:36.667Z,5.07
2023-05-17T23:20:10.505Z,6.60
2023-05-17T23:22:39.704Z,5.97
2023-05-17T23:25:11.638Z,7.22
2023-05-17T23:27:40.588Z,5.55
2023-05-17T23:30:07.886Z,4.90
2023-05-17T23:32:34.884Z,4.38
2023-05-17T23:35:03.762Z,6.20
2023-05-17T23:37:33.623Z,6.97
2023-05-17T23:40:00.768Z,5.90
2023-05-17T23:42:29.504Z,5.43
2023-05-17T23:44:58.730Z,4.93
2023-05-17T23:47:28.073Z,4.45
2023-05-17T23:49:58.709Z,3.83
2023-05-17T23:52:29.949Z,4.43
2023-05-17T23:54:58.983Z,4.10
2023-05-17T23:57:25.801Z,5.65
2023-05-17T23:59:52.564Z,4.07
